Time;durP1;ratioP1;P1;durP2;ratioP2;P2;SDS_P1;SDS_P2;PMS_P1;PMS_P2;Temp;Humidity;BMP_temperature;BMP_pressure;BME280_temperature;BME280_humidity;BME280_pressure;Samples;Min_cycle;Max_cycle;Signal;HPM_P1;HPM_P2
2021/12/06 00:00:11;;;;;;;47.03;25.33;;;2.80;99.90;;;;;;5025735;28;20042;-75
2021/12/06 00:02:37;;;;;;;77.38;35.13;;;2.70;99.90;;;;;;5028794;28;20025;-76
2021/12/06 00:05:03;;;;;;;61.55;30.08;;;2.80;99.90;;;;;;5023916;28;20597;-76
2021/12/06 00:07:29;;;;;;;57.42;27.88;;;2.80;99.90;;;;;;5022032;28;20243;-79
2021/12/06 00:09:54;;;;;;;49.80;26.10;;;2.80;99.90;;;;;;5021296;28;20203;-75
2021/12/06 00:12:20;;;;;;;43.38;23.05;;;2.70;99.90;;;;;;5021941;28;20200;-76
2021/12/06 00:14:46;;;;;;;42.70;22.02;;;2.70;99.90;;;;;;5021527;28;20264;-75
2021/12/06 00:17:14;;;;;;;42.47;22.73;;;2.70;99.90;;;;;;5020166;28;20120;-75
2021/12/06 00:19:41;;;;;;;38.60;20.83;;;2.70;99.90;;;;;;5022202;28;20037;-75
2021/12/06 00:22:10;;;;;;;37.45;17.13;;;2.70;99.90;;;;;;5021838;28;20280;-75
2021/12/06 00:24:36;;;;;;;57.28;26.67;;;2.60;99.90;;;;;;5021654;28;20041;-77
2021/12/06 00:27:02;;;;;;;41.20;18.33;;;2.70;99.90;;;;;;5020289;28;20022;-80
2021/12/06 00:29:28;;;;;;;44.63;21.50;;;2.60;99.90;;;;;;5021926;28;20025;-76
2021/12/06 00:31:54;;;;;;;22.88;12.25;;;2.60;99.90;;;;;;5021330;28;20384;-74
2021/12/06 00:34:23;;;;;;;14.43;9.13;;;2.60;99.90;;;;;;5019709;28;20044;-77
2021/12/06 00:37:04;;;;;;;19.23;10.00;;;2.50;99.90;;;;;;5019729;28;20025;-76
2021/12/06 00:39:32;;;;;;;28.27;13.85;;;2.50;99.90;;;;;;5021190;28;20034;-76
2021/12/06 00:41:58;;;;;;;36.80;15.90;;;2.60;99.90;;;;;;5020964;28;20063;-77
2021/12/06 00:44:24;;;;;;;47.40;19.52;;;2.60;99.90;;;;;;5020823;28;20033;-75
2021/12/06 00:46:50;;;;;;;41.47;15.05;;;2.50;99.90;;;;;;5020814;28;20511;-76
2021/12/06 00:49:16;;;;;;;49.55;18.83;;;2.60;99.90;;;;;;5021147;28;20025;-76
2021/12/06 00:51:41;;;;;;;128.48;44.28;;;2.90;99.90;;;;;;5020929;28;20028;-76
2021/12/06 00:54:09;;;;;;;59.63;23.80;;;2.60;99.90;;;;;;5020316;28;20503;-75
2021/12/06 00:56:37;;;;;;;75.97;29.73;;;2.70;99.90;;;;;;5018697;28;20302;-75
2021/12/06 00:59:03;;;;;;;90.32;35.00;;;2.60;99.90;;;;;;5020885;28;20041;-78
2021/12/06 01:01:30;;;;;;;125.28;43.80;;;2.60;99.90;;;;;;5021030;28;20025;-76
2021/12/06 01:03:57;;;;;;;113.90;40.85;;;2.60;99.90;;;;;;5021028;28;20129;-75
2021/12/06 01:06:23;;;;;;;80.95;27.52;;;2.60;99.90;;;;;;5020725;28;20447;-75
2021/12/06 01:08:48;;;;;;;175.95;55.20;;;2.60;99.90;;;;;;5020753;28;20290;-76
2021/12/06 01:11:15;;;;;;;74.68;25.92;;;2.70;99.90;;;;;;5020264;28;20484;-75
2021/12/06 01:13:42;;;;;;;22.67;8.68;;;2.80;99.90;;;;;;5021697;28;20036;-76
2021/12/06 01:16:09;;;;;;;16.83;6.03;;;2.90;99.90;;;;;;5020680;28;20052;-76
2021/12/06 01:18:36;;;;;;;15.45;5.75;;;2.90;99.90;;;;;;5020953;28;20021;-76
2021/12/06 01:23:42;;;;;;;166.65;59.55;;;3.10;99.90;;;;;;5020375;28;20249;-76
2021/12/06 01:31:45;;;;;;;25.92;12.77;;;3.00;99.90;;;;;;5021792;28;20348;-75
2021/12/06 01:39:53;;;;;;;73.32;31.63;;;3.00;99.90;;;;;;5019261;28;20553;-75
2021/12/06 01:42:19;;;;;;;215.30;83.97;;;3.00;99.90;;;;;;5019294;28;20215;-77
2021/12/06 01:44:50;;;;;;;183.90;74.55;;;3.00;99.90;;;;;;5019751;28;20381;-77
2021/12/06 01:47:18;;;;;;;185.05;71.90;;;3.00;99.90;;;;;;5019777;28;20034;-76
2021/12/06 01:49:51;;;;;;;115.70;40.78;;;3.10;99.90;;;;;;5020663;28;20029;-77
2021/12/06 01:52:21;;;;;;;97.95;34.78;;;3.10;99.90;;;;;;5005734;28;20037;-76
2021/12/06 01:54:47;;;;;;;155.15;58.83;;;3.00;99.90;;;;;;5026185;28;20686;-78
2021/12/06 01:57:13;;;;;;;76.70;33.05;;;3.10;99.90;;;;;;5029629;28;20025;-77
2021/12/06 01:59:39;;;;;;;39.95;19.50;;;3.00;99.90;;;;;;5026989;28;20045;-76
2021/12/06 02:02:06;;;;;;;31.75;15.75;;;3.00;99.90;;;;;;5025935;28;20025;-76
2021/12/06 02:04:34;;;;;;;58.85;29.02;;;3.00;99.90;;;;;;5027127;28;20041;-76
2021/12/06 02:07:03;;;;;;;51.40;24.90;;;3.00;99.90;;;;;;5020331;28;20306;-77
2021/12/06 02:09:30;;;;;;;48.67;24.27;;;3.00;99.90;;;;;;5020419;28;20049;-77
2021/12/06 02:12:01;;;;;;;46.55;25.10;;;3.00;99.90;;;;;;5020206;28;20037;-76
2021/12/06 02:17:10;;;;;;;23.83;13.90;;;3.10;99.90;;;;;;5022494;28;20329;-77
2021/12/06 02:19:42;;;;;;;23.70;14.38;;;3.10;99.90;;;;;;5021215;28;20046;-75
2021/12/06 02:22:14;;;;;;;26.20;15.32;;;3.20;99.90;;;;;;5022494;28;20075;-76
2021/12/06 02:24:40;;;;;;;40.13;17.83;;;3.20;99.90;;;;;;5021902;28;20029;-76
2021/12/06 02:27:08;;;;;;;25.55;14.23;;;3.30;99.90;;;;;;5023042;28;20044;-77
2021/12/06 02:29:35;;;;;;;17.20;10.07;;;3.30;99.90;;;;;;5022635;28;20028;-77
2021/12/06 02:32:05;;;;;;;14.68;8.52;;;3.30;99.90;;;;;;5023604;28;20025;-77
2021/12/06 02:34:32;;;;;;;20.50;11.80;;;3.30;99.90;;;;;;5022991;28;20041;-77
2021/12/06 02:36:59;;;;;;;21.95;13.40;;;3.30;99.90;;;;;;5022339;28;20337;-77
2021/12/06 02:39:25;;;;;;;17.92;11.57;;;3.30;99.90;;;;;;5022335;28;20206;-77
2021/12/06 02:41:53;;;;;;;17.42;10.27;;;3.20;99.90;;;;;;5020375;28;20044;-76
2021/12/06 02:44:20;;;;;;;14.00;8.32;;;3.20;99.90;;;;;;5020964;28;20053;-77
2021/12/06 02:46:46;;;;;;;15.60;10.02;;;3.20;99.90;;;;;;5021136;28;20017;-76
2021/12/06 02:49:12;;;;;;;14.65;9.68;;;3.00;99.90;;;;;;5020117;28;20284;-76
2021/12/06 02:51:38;;;;;;;18.02;11.02;;;2.90;99.90;;;;;;5020415;28;20476;-76
2021/12/06 02:54:04;;;;;;;17.38;11.18;;;2.80;99.90;;;;;;5020329;28;20057;-77
2021/12/06 02:56:33;;;;;;;24.88;15.05;;;2.80;99.90;;;;;;5020329;28;20049;-76
2021/12/06 02:59:04;;;;;;;28.70;16.25;;;2.80;99.90;;;;;;5019817;28;20263;-77
2021/12/06 03:01:35;;;;;;;30.83;18.08;;;2.80;99.90;;;;;;5017999;28;20036;-77
2021/12/06 03:04:03;;;;;;;29.88;17.58;;;2.80;99.90;;;;;;5020456;28;20025;-78
2021/12/06 03:06:29;;;;;;;29.10;16.95;;;2.70;99.90;;;;;;5021311;28;20017;-76
2021/12/06 03:09:05;;;;;;;27.50;16.13;;;2.70;99.90;;;;;;5021289;28;20325;-76
2021/12/06 03:11:46;;;;;;;35.65;20.10;;;2.80;99.90;;;;;;5019253;28;20038;-76
2021/12/06 03:14:23;;;;;;;28.05;17.17;;;2.80;99.90;;;;;;5020016;28;20029;-77
2021/12/06 03:16:51;;;;;;;25.70;15.48;;;2.80;99.90;;;;;;5019142;28;20033;-77
2021/12/06 03:19:17;;;;;;;27.98;17.02;;;2.80;99.90;;;;;;5019548;28;20017;-76
2021/12/06 03:21:43;;;;;;;27.52;16.73;;;2.80;99.90;;;;;;5019432;28;20494;-77
2021/12/06 03:24:09;;;;;;;26.48;16.85;;;2.90;99.90;;;;;;5019190;28;20528;-77
2021/12/06 03:26:36;;;;;;;25.63;16.05;;;4.20;99.90;;;;;;5019887;28;20460;-76
2021/12/06 03:29:04;;;;;;;26.15;16.23;;;2.90;99.90;;;;;;5019330;28;20341;-78
2021/12/06 03:31:30;;;;;;;27.08;15.95;;;2.90;99.90;;;;;;5019439;28;20023;-77
2021/12/06 03:33:56;;;;;;;26.65;16.45;;;2.90;99.90;;;;;;5023625;28;20100;-76
2021/12/06 03:36:24;;;;;;;28.80;15.88;;;2.90;99.90;;;;;;5022318;28;20018;-76
2021/12/06 03:38:52;;;;;;;26.52;16.30;;;2.90;99.90;;;;;;5023807;28;20010;-76
2021/12/06 03:41:19;;;;;;;26.50;15.30;;;2.90;99.90;;;;;;5023354;28;20037;-76
2021/12/06 03:43:46;;;;;;;24.90;15.55;;;2.90;99.90;;;;;;5021849;28;20404;-78
2021/12/06 03:46:15;;;;;;;24.92;15.15;;;3.00;99.90;;;;;;5023381;28;20021;-76
2021/12/06 03:48:41;;;;;;;23.00;15.15;;;3.00;99.90;;;;;;5024517;28;20025;-77
2021/12/06 03:51:07;;;;;;;23.00;14.57;;;3.00;99.90;;;;;;5024801;28;20052;-77
2021/12/06 03:53:33;;;;;;;27.55;16.02;;;3.00;99.90;;;;;;5027854;28;20064;-76
2021/12/06 03:55:59;;;;;;;25.15;15.40;;;3.00;99.90;;;;;;5032777;28;20026;-77
2021/12/06 03:58:26;;;;;;;24.63;15.90;;;3.00;99.90;;;;;;5029971;28;20052;-78
2021/12/06 04:00:52;;;;;;;27.30;16.42;;;3.10;99.90;;;;;;5030174;28;20022;-79
2021/12/06 04:03:19;;;;;;;27.00;16.63;;;3.30;99.90;;;;;;5030216;28;20124;-78
2021/12/06 04:05:45;;;;;;;27.70;16.75;;;3.10;99.90;;;;;;5026843;28;20416;-77
2021/12/06 04:08:11;;;;;;;25.77;16.70;;;3.20;99.90;;;;;;5022150;28;20017;-77
2021/12/06 04:10:36;;;;;;;26.48;16.02;;;3.10;99.90;;;;;;5020335;28;20057;-77
2021/12/06 04:13:03;;;;;;;25.70;15.90;;;3.60;99.90;;;;;;5021949;28;20112;-77
2021/12/06 04:15:29;;;;;;;27.35;16.50;;;3.10;99.90;;;;;;5021610;28;20100;-77
2021/12/06 04:17:57;;;;;;;27.48;17.23;;;3.10;99.90;;;;;;5020440;28;20246;-77
2021/12/06 04:20:23;;;;;;;31.00;18.65;;;3.10;99.90;;;;;;5022484;28;20018;-77
2021/12/06 04:22:50;;;;;;;30.35;18.85;;;3.10;99.90;;;;;;5021905;28;20117;-77
2021/12/06 04:25:18;;;;;;;31.88;19.73;;;3.10;99.90;;;;;;5021433;28;20206;-78
2021/12/06 04:27:50;;;;;;;30.65;18.08;;;3.10;99.90;;;;;;5021144;28;20306;-78
2021/12/06 04:30:16;;;;;;;32.40;19.52;;;3.00;99.90;;;;;;5021339;28;20030;-78
2021/12/06 04:32:42;;;;;;;30.90;18.70;;;2.90;99.90;;;;;;5020753;28;20024;-78
2021/12/06 04:35:08;;;;;;;32.60;20.48;;;2.90;99.90;;;;;;5021087;28;20060;-77
2021/12/06 04:37:35;;;;;;;31.60;20.23;;;2.90;99.90;;;;;;5020198;28;20693;-78
2021/12/06 04:40:02;;;;;;;34.40;20.38;;;2.80;99.90;;;;;;5020786;28;20500;-77
2021/12/06 04:42:28;;;;;;;33.97;20.55;;;2.90;99.90;;;;;;5019069;28;20025;-77
2021/12/06 04:44:54;;;;;;;37.53;22.08;;;2.90;99.90;;;;;;5020575;28;20234;-77
2021/12/06 04:47:19;;;;;;;35.50;21.42;;;2.90;99.90;;;;;;5020916;28;20021;-78
2021/12/06 04:49:45;;;;;;;36.17;21.35;;;3.00;99.90;;;;;;5021069;28;20033;-77
2021/12/06 04:52:13;;;;;;;38.17;22.38;;;3.10;99.90;;;;;;5020596;28;20021;-78
2021/12/06 04:54:42;;;;;;;35.85;21.23;;;3.10;99.90;;;;;;5019342;28;20113;-77
2021/12/06 04:57:19;;;;;;;38.13;22.23;;;3.10;99.90;;;;;;5020663;28;20073;-77
2021/12/06 04:59:53;;;;;;;35.72;22.35;;;3.20;99.90;;;;;;5020543;28;20482;-78
2021/12/06 05:02:24;;;;;;;34.45;20.45;;;3.10;99.90;;;;;;5020874;28;20084;-78
2021/12/06 05:04:53;;;;;;;35.33;20.40;;;3.20;99.90;;;;;;5021850;28;20045;-77
2021/12/06 05:07:42;;;;;;;32.30;20.73;;;3.20;99.90;;;;;;5021566;28;20014;-79
2021/12/06 05:10:10;;;;;;;37.03;22.02;;;3.20;99.90;;;;;;5026272;28;20095;-77
2021/12/06 05:12:36;;;;;;;37.05;21.58;;;3.20;99.90;;;;;;5026419;28;20029;-78
2021/12/06 05:15:04;;;;;;;33.53;20.75;;;3.30;99.90;;;;;;5025713;28;20222;-77
2021/12/06 05:17:30;;;;;;;36.90;21.55;;;3.30;99.90;;;;;;5024939;28;20022;-78
2021/12/06 05:19:56;;;;;;;36.65;21.00;;;3.60;99.90;;;;;;5021553;28;20079;-78
2021/12/06 05:22:24;;;;;;;31.77;19.52;;;3.30;99.90;;;;;;5020089;28;20079;-78
2021/12/06 05:24:50;;;;;;;31.65;19.17;;;3.30;99.90;;;;;;5019808;28;20298;-77
2021/12/06 05:27:19;;;;;;;31.85;20.60;;;3.30;99.90;;;;;;5019920;28;20018;-78
2021/12/06 05:29:51;;;;;;;42.90;25.00;;;3.40;99.90;;;;;;5019520;28;20022;-78
2021/12/06 05:32:16;;;;;;;39.92;23.08;;;3.40;99.90;;;;;;5019343;28;20022;-78
2021/12/06 05:34:44;;;;;;;40.03;23.20;;;3.40;99.90;;;;;;5019363;28;20022;-78
2021/12/06 05:37:14;;;;;;;40.78;23.60;;;3.40;99.90;;;;;;5019638;28;20017;-77
2021/12/06 05:39:40;;;;;;;49.63;23.58;;;3.50;99.90;;;;;;5019134;28;20100;-78
2021/12/06 05:42:12;;;;;;;36.45;21.67;;;3.40;99.90;;;;;;5019414;28;20029;-78
2021/12/06 05:44:38;;;;;;;37.10;21.85;;;3.40;99.90;;;;;;5019917;28;20029;-78
2021/12/06 05:47:05;;;;;;;35.80;20.90;;;3.40;99.90;;;;;;5020074;28;20032;-78
2021/12/06 05:49:30;;;;;;;35.05;21.05;;;3.30;99.90;;;;;;5019644;28;20221;-79
2021/12/06 05:51:57;;;;;;;33.63;20.23;;;3.30;99.90;;;;;;5020648;28;20547;-78
2021/12/06 05:54:23;;;;;;;36.60;20.98;;;3.20;99.90;;;;;;5019386;28;20026;-78
2021/12/06 05:56:50;;;;;;;34.03;19.63;;;3.10;99.90;;;;;;5020262;28;20025;-79
2021/12/06 05:59:16;;;;;;;29.85;18.60;;;3.10;99.90;;;;;;5020596;28;20037;-79
2021/12/06 06:01:42;;;;;;;31.92;19.60;;;3.10;99.90;;;;;;5019065;28;20091;-78
2021/12/06 06:04:08;;;;;;;37.97;21.35;;;3.10;99.90;;;;;;5019440;28;20022;-78
2021/12/06 06:06:35;;;;;;;36.08;21.05;;;3.10;99.90;;;;;;5019469;28;20587;-78
2021/12/06 06:09:03;;;;;;;35.47;20.77;;;3.10;99.90;;;;;;5019810;28;20119;-79
2021/12/06 06:11:29;;;;;;;32.10;20.58;;;3.10;99.90;;;;;;5018351;28;20064;-78
2021/12/06 06:13:55;;;;;;;31.83;21.00;;;3.00;99.90;;;;;;5019778;28;20080;-78
2021/12/06 06:16:22;;;;;;;33.33;20.50;;;3.00;99.90;;;;;;5019858;28;20057;-79
2021/12/06 06:18:50;;;;;;;32.40;18.88;;;3.00;99.90;;;;;;5019177;28;20029;-78
2021/12/06 06:21:17;;;;;;;28.48;18.42;;;2.90;99.90;;;;;;5019307;28;20021;-79
2021/12/06 06:23:43;;;;;;;29.58;19.13;;;2.90;99.90;;;;;;5019054;28;20014;-78
2021/12/06 06:26:09;;;;;;;31.10;19.45;;;3.00;99.90;;;;;;5019276;28;20066;-78
2021/12/06 06:28:35;;;;;;;33.20;20.75;;;3.60;99.90;;;;;;5019237;28;20239;-78
2021/12/06 06:31:01;;;;;;;35.83;20.50;;;3.00;99.90;;;;;;5017259;28;20029;-78
2021/12/06 06:33:26;;;;;;;37.55;21.98;;;3.10;99.90;;;;;;5019063;28;20487;-78
2021/12/06 06:35:53;;;;;;;39.38;23.45;;;3.10;99.90;;;;;;5019263;28;20108;-79
2021/12/06 06:38:19;;;;;;;34.75;21.15;;;3.10;99.90;;;;;;5018888;28;20104;-79
2021/12/06 06:40:46;;;;;;;30.38;18.67;;;3.20;99.90;;;;;;5019232;28;20091;-78
2021/12/06 06:43:12;;;;;;;30.65;18.85;;;3.20;99.90;;;;;;5019050;28;20333;-79
2021/12/06 06:45:37;;;;;;;32.53;20.05;;;3.20;99.90;;;;;;5019226;28;20055;-78
2021/12/06 06:48:03;;;;;;;30.33;19.50;;;3.20;99.90;;;;;;5019543;28;20484;-78
2021/12/06 06:50:29;;;;;;;34.65;19.55;;;3.20;99.90;;;;;;5019254;28;20290;-78
2021/12/06 06:52:55;;;;;;;31.52;19.40;;;3.20;99.90;;;;;;5018948;28;20404;-77
2021/12/06 06:55:22;;;;;;;30.10;16.85;;;3.20;99.90;;;;;;5019116;28;20480;-78
2021/12/06 06:57:50;;;;;;;27.98;17.20;;;3.30;99.90;;;;;;5018838;28;20021;-78
2021/12/06 07:00:35;;;;;;;32.80;18.85;;;3.20;99.90;;;;;;5018937;28;20512;-79
2021/12/06 07:03:03;;;;;;;35.78;21.05;;;3.50;99.90;;;;;;5018045;28;20033;-78
2021/12/06 07:05:29;;;;;;;36.47;21.55;;;4.40;99.90;;;;;;5016647;28;20044;-80
2021/12/06 07:07:56;;;;;;;36.17;21.25;;;3.30;99.90;;;;;;5025269;28;20025;-78
2021/12/06 07:10:23;;;;;;;37.40;21.05;;;3.20;99.90;;;;;;5025569;28;20038;-78
2021/12/06 07:12:51;;;;;;;31.90;18.85;;;3.20;99.90;;;;;;5025627;28;20334;-76
2021/12/06 07:15:24;;;;;;;31.75;18.60;;;3.30;99.90;;;;;;5025481;28;20014;-78
2021/12/06 07:17:51;;;;;;;28.88;17.92;;;3.30;99.90;;;;;;5023523;28;20099;-78
2021/12/06 07:20:18;;;;;;;33.08;18.33;;;3.30;99.90;;;;;;5025718;28;20322;-78
2021/12/06 07:22:45;;;;;;;25.23;16.15;;;3.30;99.90;;;;;;5025638;28;20526;-77
2021/12/06 07:25:13;;;;;;;30.08;17.42;;;3.20;99.90;;;;;;5023997;28;20329;-77
2021/12/06 07:27:39;;;;;;;24.48;15.63;;;3.10;99.90;;;;;;5025716;28;20025;-77
2021/12/06 07:30:06;;;;;;;26.77;15.45;;;3.10;99.90;;;;;;5025098;28;20025;-77
2021/12/06 07:32:32;;;;;;;31.00;16.95;;;3.10;99.90;;;;;;5025314;28;20044;-79
2021/12/06 07:34:58;;;;;;;31.33;17.45;;;3.10;99.90;;;;;;5024897;28;20053;-76
2021/12/06 07:37:24;;;;;;;27.23;18.15;;;3.10;99.90;;;;;;5024269;28;20389;-77
2021/12/06 07:39:50;;;;;;;28.83;16.73;;;3.20;99.90;;;;;;5024948;28;20105;-77
2021/12/06 07:42:16;;;;;;;28.95;17.58;;;3.10;99.90;;;;;;5025269;28;20393;-77
2021/12/06 07:44:43;;;;;;;28.65;16.27;;;3.10;99.90;;;;;;5025114;28;20040;-77
2021/12/06 07:47:10;;;;;;;26.63;15.57;;;3.10;99.90;;;;;;5025122;28;20028;-77
2021/12/06 07:49:37;;;;;;;32.22;18.88;;;3.20;99.90;;;;;;5024792;28;20014;-77
2021/12/06 07:52:04;;;;;;;33.25;18.42;;;3.10;99.90;;;;;;5024347;28;20017;-78
2021/12/06 07:54:30;;;;;;;27.95;16.58;;;3.20;99.90;;;;;;5024620;28;20458;-76
2021/12/06 07:56:56;;;;;;;27.73;16.88;;;3.30;99.90;;;;;;5026075;28;20017;-80
2021/12/06 07:59:22;;;;;;;31.02;17.40;;;3.30;99.90;;;;;;5027993;28;20447;-80
2021/12/06 08:01:48;;;;;;;30.08;18.70;;;3.30;99.90;;;;;;5026326;28;20372;-75
2021/12/06 08:04:14;;;;;;;30.80;18.40;;;3.30;99.90;;;;;;5025825;28;20297;-76
2021/12/06 08:06:40;;;;;;;31.80;19.65;;;3.30;99.90;;;;;;5025425;28;20032;-77
2021/12/06 08:09:06;;;;;;;37.08;19.85;;;3.30;99.90;;;;;;5026788;28;20652;-80
2021/12/06 08:11:33;;;;;;;45.08;24.88;;;3.30;99.90;;;;;;5024515;28;20060;-79
2021/12/06 08:13:59;;;;;;;36.67;21.85;;;3.30;99.90;;;;;;5025775;28;20017;-78
2021/12/06 08:16:44;;;;;;;42.63;24.15;;;3.30;99.90;;;;;;5025671;28;20025;-77
2021/12/06 08:19:11;;;;;;;45.92;25.75;;;3.40;99.90;;;;;;5023372;28;20024;-76
2021/12/06 08:21:37;;;;;;;38.13;22.98;;;3.40;99.90;;;;;;5025556;28;20029;-79
2021/12/06 08:24:04;;;;;;;37.65;21.63;;;3.40;99.90;;;;;;5025333;28;20022;-77
2021/12/06 08:26:32;;;;;;;40.80;22.35;;;3.40;99.90;;;;;;5025208;28;20028;-79
2021/12/06 08:29:00;;;;;;;34.60;19.92;;;3.40;99.90;;;;;;5024035;28;20079;-77
2021/12/06 08:31:28;;;;;;;35.70;19.65;;;3.40;99.90;;;;;;5024866;28;20025;-79
2021/12/06 08:33:55;;;;;;;36.15;20.77;;;3.40;99.90;;;;;;5025249;28;20165;-79
2021/12/06 08:36:22;;;;;;;33.85;20.50;;;3.40;99.90;;;;;;5024144;28;20048;-79
2021/12/06 08:38:48;;;;;;;32.10;19.60;;;3.50;99.90;;;;;;5024071;28;20052;-79
2021/12/06 08:41:19;;;;;;;33.22;19.38;;;3.50;99.90;;;;;;5027098;28;20029;-81
2021/12/06 08:43:46;;;;;;;31.60;17.85;;;3.50;99.90;;;;;;5027638;28;20029;-78
2021/12/06 08:46:20;;;;;;;32.92;19.80;;;3.50;99.90;;;;;;5024948;28;20054;-80
2021/12/06 08:48:47;;;;;;;31.92;18.98;;;3.50;99.90;;;;;;5026218;28;20026;-79
2021/12/06 08:51:22;;;;;;;38.92;20.50;;;3.50;99.90;;;;;;5027404;28;20018;-82
2021/12/06 08:53:49;;;;;;;43.75;22.63;;;3.50;99.90;;;;;;5026955;28;20050;-78
2021/12/06 08:56:16;;;;;;;40.72;22.13;;;3.50;99.90;;;;;;5025471;28;20104;-81
2021/12/06 08:58:42;;;;;;;39.00;21.20;;;3.50;99.90;;;;;;5028353;28;20025;-78
2021/12/06 09:01:09;;;;;;;36.53;21.08;;;3.50;99.90;;;;;;5023937;28;20022;-80
2021/12/06 09:03:35;;;;;;;37.17;20.60;;;3.50;99.90;;;;;;5022946;28;20024;-79
2021/12/06 09:06:06;;;;;;;37.42;20.23;;;3.50;99.90;;;;;;5022260;28;20263;-76
2021/12/06 09:08:33;;;;;;;38.08;19.83;;;3.50;99.90;;;;;;5025936;28;20104;-77
2021/12/06 09:11:00;;;;;;;34.30;18.83;;;3.50;99.90;;;;;;5024607;28;20734;-78
2021/12/06 09:13:28;;;;;;;36.88;20.55;;;3.40;99.90;;;;;;5023122;28;20120;-77
2021/12/06 09:15:56;;;;;;;35.92;20.70;;;3.40;99.90;;;;;;5024204;28;20733;-78
2021/12/06 09:18:22;;;;;;;38.47;22.52;;;3.40;99.90;;;;;;5023925;28;20020;-78
2021/12/06 09:20:50;;;;;;;81.07;41.53;;;3.40;99.90;;;;;;5023060;28;20032;-79
2021/12/06 09:23:17;;;;;;;65.03;33.40;;;3.30;99.90;;;;;;5026702;28;20017;-77
2021/12/06 09:25:45;;;;;;;51.20;27.33;;;3.30;99.90;;;;;;5026602;28;20117;-77
2021/12/06 09:28:12;;;;;;;57.85;29.95;;;3.30;99.90;;;;;;5027253;28;20032;-76
2021/12/06 09:30:38;;;;;;;54.60;27.48;;;3.30;99.90;;;;;;5026417;28;20018;-76
2021/12/06 09:33:09;;;;;;;46.88;24.50;;;3.20;99.90;;;;;;5029855;28;20075;-77
2021/12/06 09:35:38;;;;;;;49.00;26.63;;;3.20;99.90;;;;;;5030649;28;20024;-76
2021/12/06 09:38:05;;;;;;;50.70;28.17;;;3.20;99.90;;;;;;5032205;28;20029;-76
2021/12/06 09:40:33;;;;;;;52.20;28.20;;;3.40;99.90;;;;;;5029651;28;20029;-75
2021/12/06 09:43:00;;;;;;;52.45;27.60;;;3.30;99.90;;;;;;5030613;28;20026;-76
2021/12/06 09:45:30;;;;;;;60.13;29.48;;;3.30;99.90;;;;;;5031945;28;20117;-76
2021/12/06 09:47:57;;;;;;;57.53;31.05;;;3.30;99.90;;;;;;5031254;28;20415;-75
2021/12/06 09:50:27;;;;;;;54.88;29.65;;;3.30;99.90;;;;;;5033175;28;20021;-76
2021/12/06 09:52:56;;;;;;;57.40;32.42;;;3.30;99.90;;;;;;5031402;28;20036;-78
2021/12/06 09:55:23;;;;;;;63.08;33.15;;;3.30;99.90;;;;;;5027198;28;20104;-80
2021/12/06 09:58:13;;;;;;;56.95;31.58;;;4.10;99.90;;;;;;5031733;28;20281;-76
2021/12/06 10:00:45;;;;;;;53.28;28.17;;;3.30;99.90;;;;;;5027592;28;20111;-76
2021/12/06 10:03:15;;;;;;;47.78;25.58;;;3.20;99.90;;;;;;5023764;28;20662;-79
2021/12/06 10:05:42;;;;;;;51.67;27.85;;;3.10;99.90;;;;;;5022369;28;20125;-79
2021/12/06 10:08:08;;;;;;;50.97;28.55;;;3.10;99.90;;;;;;5026485;28;20172;-76
2021/12/06 10:10:35;;;;;;;58.28;32.70;;;3.20;99.90;;;;;;5028336;28;20688;-77
2021/12/06 10:13:01;;;;;;;94.55;43.85;;;3.20;99.90;;;;;;5029131;28;20029;-77
2021/12/06 10:15:29;;;;;;;131.20;60.47;;;3.20;99.90;;;;;;5027184;28;20018;-78
2021/12/06 10:17:57;;;;;;;179.68;79.13;;;3.30;99.90;;;;;;5028004;28;20041;-77
2021/12/06 10:20:25;;;;;;;238.40;104.68;;;3.40;99.90;;;;;;5029096;28;20083;-77
2021/12/06 10:22:54;;;;;;;162.32;73.50;;;3.20;99.90;;;;;;5029880;28;20025;-78
2021/12/06 10:25:31;;;;;;;170.52;76.85;;;3.20;99.90;;;;;;5028932;28;20049;-77
2021/12/06 10:28:03;;;;;;;285.52;126.50;;;3.20;99.90;;;;;;5031581;28;20499;-76
2021/12/06 10:30:29;;;;;;;218.98;97.88;;;3.20;99.90;;;;;;5027617;28;20040;-77
2021/12/06 10:33:27;;;;;;;101.30;49.30;;;3.20;99.90;;;;;;5027297;28;20107;-76
2021/12/06 10:35:58;;;;;;;86.68;42.85;;;3.20;99.90;;;;;;5026014;28;20053;-76
2021/12/06 10:38:28;;;;;;;79.95;40.40;;;3.10;99.90;;;;;;5027643;28;20072;-76
2021/12/06 10:41:00;;;;;;;79.20;41.60;;;3.00;99.90;;;;;;5026358;28;20021;-76
2021/12/06 10:43:26;;;;;;;76.10;40.08;;;3.00;99.90;;;;;;5027019;28;20025;-76
2021/12/06 10:45:54;;;;;;;71.43;39.10;;;3.10;99.90;;;;;;5032212;28;20029;-78
2021/12/06 10:48:23;;;;;;;77.95;41.33;;;3.00;99.90;;;;;;5031713;28;20152;-77
2021/12/06 10:50:52;;;;;;;77.30;42.08;;;3.00;99.90;;;;;;5026465;28;20373;-77
2021/12/06 10:53:34;;;;;;;70.55;39.17;;;2.90;99.90;;;;;;5026656;28;20028;-77
2021/12/06 10:56:00;;;;;;;85.38;42.83;;;2.80;99.90;;;;;;5023323;28;20025;-75
2021/12/06 10:58:29;;;;;;;83.97;43.28;;;2.80;99.90;;;;;;5023865;28;20270;-75
2021/12/06 11:01:02;;;;;;;89.00;43.80;;;2.70;99.90;;;;;;5024904;28;20353;-77
2021/12/06 11:03:42;;;;;;;82.30;44.17;;;2.70;99.90;;;;;;5030474;28;20014;-76
2021/12/06 11:06:18;;;;;;;83.32;45.60;;;2.50;99.90;;;;;;5029757;28;20029;-77
2021/12/06 11:08:48;;;;;;;88.60;45.88;;;2.60;99.90;;;;;;5029281;28;20234;-76
2021/12/06 11:11:26;;;;;;;83.03;44.70;;;2.70;99.90;;;;;;5027316;28;20033;-77
2021/12/06 11:13:55;;;;;;;81.35;44.47;;;2.60;99.90;;;;;;5026953;28;20040;-77
2021/12/06 11:16:34;;;;;;;119.43;66.47;;;3.00;99.90;;;;;;5025319;28;20033;-75
2021/12/06 11:19:07;;;;;;;75.75;43.67;;;2.50;99.90;;;;;;5025812;28;20025;-76
2021/12/06 11:21:45;;;;;;;90.40;46.28;;;2.40;99.90;;;;;;5030041;28;20036;-76
2021/12/06 11:24:20;;;;;;;81.38;42.08;;;2.40;99.90;;;;;;5029028;28;20025;-75
2021/12/06 11:27:03;;;;;;;96.50;46.50;;;2.50;99.90;;;;;;5030553;28;20071;-76
2021/12/06 11:29:44;;;;;;;82.97;42.42;;;2.50;99.90;;;;;;5028031;28;20187;-77
2021/12/06 11:32:26;;;;;;;107.00;46.63;;;2.50;99.90;;;;;;5028300;28;20045;-76
2021/12/06 11:35:06;;;;;;;98.28;44.55;;;2.50;99.90;;;;;;5028428;28;20590;-76
2021/12/06 11:37:34;;;;;;;91.20;42.53;;;2.50;99.90;;;;;;5027380;28;20256;-77
2021/12/06 11:40:04;;;;;;;78.90;38.28;;;2.50;99.90;;;;;;5028312;28;20029;-77
2021/12/06 11:42:32;;;;;;;84.90;41.97;;;2.60;99.90;;;;;;5032283;28;20085;-77
2021/12/06 11:44:58;;;;;;;88.88;42.33;;;2.60;99.90;;;;;;5032903;28;20679;-76
2021/12/06 11:47:24;;;;;;;93.82;45.50;;;2.60;99.90;;;;;;5032203;28;20652;-76
2021/12/06 11:49:55;;;;;;;81.38;45.03;;;2.60;99.90;;;;;;5031158;28;20017;-76
2021/12/06 11:52:27;;;;;;;78.85;42.78;;;2.70;99.90;;;;;;5031790;28;20030;-79
2021/12/06 11:55:19;;;;;;;72.22;38.10;;;2.60;99.90;;;;;;5031881;28;20526;-77
2021/12/06 11:57:53;;;;;;;70.43;39.58;;;2.60;99.90;;;;;;5036758;28;20045;-78
2021/12/06 12:00:22;;;;;;;69.97;36.95;;;2.70;99.90;;;;;;5040990;28;20048;-78
2021/12/06 12:02:49;;;;;;;68.47;37.72;;;4.30;99.90;;;;;;5032964;28;20067;-76
2021/12/06 12:05:24;;;;;;;72.82;39.88;;;2.50;99.90;;;;;;5036451;28;20040;-78
2021/12/06 12:08:14;;;;;;;73.97;40.53;;;2.60;99.90;;;;;;5035239;28;20056;-76
2021/12/06 12:10:44;;;;;;;70.22;38.65;;;2.60;99.90;;;;;;5030015;28;20044;-76
2021/12/06 12:13:13;;;;;;;71.78;39.42;;;2.60;99.90;;;;;;5026107;28;20018;-77
2021/12/06 12:15:41;;;;;;;74.85;41.63;;;2.50;99.90;;;;;;5031439;28;20138;-79
2021/12/06 12:18:07;;;;;;;76.13;42.72;;;2.50;99.90;;;;;;5030882;28;20021;-78
2021/12/06 12:20:35;;;;;;;75.13;40.33;;;2.50;99.90;;;;;;5030920;28;20728;-78
2021/12/06 12:23:07;;;;;;;77.22;42.60;;;2.50;99.90;;;;;;5031484;28;20025;-75
2021/12/06 12:25:42;;;;;;;90.82;47.38;;;2.60;99.90;;;;;;5036095;28;20112;-77
2021/12/06 12:28:35;;;;;;;94.13;52.33;;;2.60;99.90;;;;;;5036698;28;20014;-77
2021/12/06 12:30:59;;;;;;;112.72;58.58;;;4.40;99.90;;;;;;5034904;28;20117;-75
2021/12/06 12:33:27;;;;;;;124.88;63.67;;;2.70;99.90;;;;;;5034983;28;20082;-77
2021/12/06 12:35:57;;;;;;;122.20;61.03;;;2.80;99.90;;;;;;5037341;28;20025;-76
2021/12/06 12:38:26;;;;;;;114.45;63.58;;;2.80;99.90;;;;;;5033322;28;20024;-75
2021/12/06 12:40:56;;;;;;;121.85;64.63;;;2.80;99.90;;;;;;5033429;28;20042;-76
2021/12/06 12:43:33;;;;;;;116.25;61.28;;;2.80;99.90;;;;;;5032069;28;20121;-75
2021/12/06 12:46:36;;;;;;;90.72;48.42;;;2.80;99.90;;;;;;5034689;28;20025;-76
2021/12/06 12:49:05;;;;;;;84.55;45.03;;;2.90;99.90;;;;;;5012539;28;20034;-76
2021/12/06 12:51:35;;;;;;;76.05;41.92;;;2.90;99.90;;;;;;5006230;28;20025;-75
2021/12/06 12:54:19;;;;;;;76.50;41.17;;;2.90;99.90;;;;;;5011433;28;20022;-77
2021/12/06 12:56:51;;;;;;;62.63;34.85;;;3.00;99.90;;;;;;5010527;28;20058;-75
2021/12/06 12:59:26;;;;;;;59.47;34.83;;;3.00;99.90;;;;;;4996427;28;20034;-76